sensor_id;sensor_type;location;lat;lon;timestamp;P1;durP1;ratioP1;P2;durP2;ratioP2
39882;SDS011;55824;52.220;21.040;2023-06-14T00:00:36;7.03;;;2.85;;
39882;SDS011;55824;52.220;21.040;2023-06-14T00:03:05;3.90;;;2.50;;
39882;SDS011;55824;52.220;21.040;2023-06-14T00:05:33;4.18;;;2.55;;
39882;SDS011;55824;52.220;21.040;2023-06-14T00:08:03;5.07;;;2.33;;
39882;SDS011;55824;52.220;21.040;2023-06-14T00:10:32;4.32;;;2.50;;
39882;SDS011;55824;52.220;21.040;2023-06-14T00:13:00;3.70;;;2.30;;
39882;SDS011;55824;52.220;21.040;2023-06-14T00:15:26;4.45;;;2.55;;
39882;SDS011;55824;52.220;21.040;2023-06-14T00:17:53;4.18;;;2.22;;
39882;SDS011;55824;52.220;21.040;2023-06-14T00:20:19;4.97;;;2.40;;
39882;SDS011;55824;52.220;21.040;2023-06-14T00:22:45;4.40;;;2.70;;
39882;SDS011;55824;52.220;21.040;2023-06-14T00:25:13;4.05;;;2.35;;
39882;SDS011;55824;52.220;21.040;2023-06-14T00:27:39;3.78;;;2.20;;
39882;SDS011;55824;52.220;21.040;2023-06-14T00:30:05;3.28;;;2.53;;
39882;SDS011;55824;52.220;21.040;2023-06-14T00:32:31;3.38;;;2.35;;
39882;SDS011;55824;52.220;21.040;2023-06-14T00:34:57;3.90;;;2.05;;
39882;SDS011;55824;52.220;21.040;2023-06-14T00:37:23;4.47;;;2.72;;
39882;SDS011;55824;52.220;21.040;2023-06-14T00:39:49;3.38;;;2.10;;
39882;SDS011;55824;52.220;21.040;2023-06-14T00:42:24;4.68;;;2.40;;
39882;SDS011;55824;52.220;21.040;2023-06-14T00:44:51;4.18;;;2.45;;
39882;SDS011;55824;52.220;21.040;2023-06-14T00:47:17;2.90;;;2.13;;
39882;SDS011;55824;52.220;21.040;2023-06-14T00:49:45;3.42;;;2.47;;
39882;SDS011;55824;52.220;21.040;2023-06-14T00:52:11;3.17;;;2.50;;
39882;SDS011;55824;52.220;21.040;2023-06-14T00:54:39;3.50;;;2.42;;
39882;SDS011;55824;52.220;21.040;2023-06-14T00:57:06;3.55;;;2.55;;
39882;SDS011;55824;52.220;21.040;2023-06-14T00:59:33;3.55;;;2.00;;
39882;SDS011;55824;52.220;21.040;2023-06-14T01:01:59;4.45;;;2.53;;
39882;SDS011;55824;52.220;21.040;2023-06-14T01:04:25;3.42;;;2.10;;
39882;SDS011;55824;52.220;21.040;2023-06-14T01:09:21;4.80;;;2.50;;
39882;SDS011;55824;52.220;21.040;2023-06-14T01:12:04;4.53;;;2.40;;
39882;SDS011;55824;52.220;21.040;2023-06-14T01:14:31;4.45;;;2.25;;
39882;SDS011;55824;52.220;21.040;2023-06-14T01:16:57;4.05;;;2.50;;
39882;SDS011;55824;52.220;21.040;2023-06-14T01:19:24;4.60;;;2.60;;
39882;SDS011;55824;52.220;21.040;2023-06-14T01:21:50;5.05;;;2.13;;
39882;SDS011;55824;52.220;21.040;2023-06-14T01:24:17;3.28;;;2.15;;
39882;SDS011;55824;52.220;21.040;2023-06-14T01:26:48;3.10;;;2.45;;
39882;SDS011;55824;52.220;21.040;2023-06-14T01:29:16;3.60;;;2.30;;
39882;SDS011;55824;52.220;21.040;2023-06-14T01:31:43;4.65;;;2.35;;
39882;SDS011;55824;52.220;21.040;2023-06-14T01:34:10;3.72;;;2.50;;
39882;SDS011;55824;52.220;21.040;2023-06-14T01:36:36;3.00;;;2.00;;
39882;SDS011;55824;52.220;21.040;2023-06-14T01:39:03;4.20;;;2.10;;
39882;SDS011;55824;52.220;21.040;2023-06-14T01:41:29;3.25;;;2.38;;
39882;SDS011;55824;52.220;21.040;2023-06-14T01:43:56;3.00;;;2.20;;
39882;SDS011;55824;52.220;21.040;2023-06-14T01:46:22;3.83;;;2.30;;
39882;SDS011;55824;52.220;21.040;2023-06-14T01:48:48;2.65;;;2.00;;
39882;SDS011;55824;52.220;21.040;2023-06-14T01:51:15;3.15;;;2.15;;
39882;SDS011;55824;52.220;21.040;2023-06-14T01:53:40;3.45;;;2.05;;
39882;SDS011;55824;52.220;21.040;2023-06-14T01:56:06;4.57;;;2.20;;
39882;SDS011;55824;52.220;21.040;2023-06-14T01:58:32;4.10;;;2.00;;
39882;SDS011;55824;52.220;21.040;2023-06-14T02:00:58;3.10;;;2.20;;
39882;SDS011;55824;52.220;21.040;2023-06-14T02:03:25;5.18;;;2.85;;
39882;SDS011;55824;52.220;21.040;2023-06-14T02:05:52;8.95;;;3.90;;
39882;SDS011;55824;52.220;21.040;2023-06-14T02:08:19;8.98;;;4.20;;
39882;SDS011;55824;52.220;21.040;2023-06-14T02:10:45;9.10;;;4.18;;
39882;SDS011;55824;52.220;21.040;2023-06-14T02:13:11;19.35;;;9.65;;
39882;SDS011;55824;52.220;21.040;2023-06-14T02:15:37;16.05;;;6.30;;
39882;SDS011;55824;52.220;21.040;2023-06-14T02:18:03;18.40;;;8.18;;
39882;SDS011;55824;52.220;21.040;2023-06-14T02:20:30;12.02;;;5.68;;
39882;SDS011;55824;52.220;21.040;2023-06-14T02:22:56;16.75;;;7.22;;
39882;SDS011;55824;52.220;21.040;2023-06-14T02:25:22;14.25;;;6.60;;
39882;SDS011;55824;52.220;21.040;2023-06-14T02:27:48;18.48;;;8.35;;
39882;SDS011;55824;52.220;21.040;2023-06-14T02:30:14;12.10;;;5.97;;
39882;SDS011;55824;52.220;21.040;2023-06-14T02:32:40;10.13;;;5.47;;
39882;SDS011;55824;52.220;21.040;2023-06-14T02:35:08;11.43;;;5.45;;
39882;SDS011;55824;52.220;21.040;2023-06-14T02:37:34;9.95;;;4.43;;
39882;SDS011;55824;52.220;21.040;2023-06-14T02:40:00;8.27;;;4.43;;
39882;SDS011;55824;52.220;21.040;2023-06-14T02:42:26;9.73;;;4.78;;
39882;SDS011;55824;52.220;21.040;2023-06-14T02:44:52;9.10;;;4.50;;
39882;SDS011;55824;52.220;21.040;2023-06-14T02:47:18;9.38;;;4.00;;
39882;SDS011;55824;52.220;21.040;2023-06-14T02:49:44;9.98;;;5.00;;
39882;SDS011;55824;52.220;21.040;2023-06-14T02:52:14;9.70;;;5.47;;
39882;SDS011;55824;52.220;21.040;2023-06-14T02:54:40;9.77;;;4.53;;
39882;SDS011;55824;52.220;21.040;2023-06-14T02:57:06;8.13;;;4.50;;
39882;SDS011;55824;52.220;21.040;2023-06-14T02:59:33;9.65;;;4.93;;
39882;SDS011;55824;52.220;21.040;2023-06-14T03:01:59;8.73;;;4.88;;
39882;SDS011;55824;52.220;21.040;2023-06-14T03:04:25;7.13;;;4.47;;
39882;SDS011;55824;52.220;21.040;2023-06-14T03:06:52;9.38;;;4.35;;
39882;SDS011;55824;52.220;21.040;2023-06-14T03:09:18;7.07;;;4.10;;
39882;SDS011;55824;52.220;21.040;2023-06-14T03:11:45;9.13;;;4.55;;
39882;SDS011;55824;52.220;21.040;2023-06-14T03:14:11;9.40;;;4.47;;
39882;SDS011;55824;52.220;21.040;2023-06-14T03:16:38;7.50;;;4.15;;
39882;SDS011;55824;52.220;21.040;2023-06-14T03:19:04;8.95;;;4.45;;
39882;SDS011;55824;52.220;21.040;2023-06-14T03:21:30;7.05;;;3.92;;
39882;SDS011;55824;52.220;21.040;2023-06-14T03:23:56;7.70;;;4.00;;
39882;SDS011;55824;52.220;21.040;2023-06-14T03:26:22;7.38;;;3.58;;
39882;SDS011;55824;52.220;21.040;2023-06-14T03:28:48;7.15;;;4.15;;
39882;SDS011;55824;52.220;21.040;2023-06-14T03:31:15;7.03;;;3.55;;
39882;SDS011;55824;52.220;21.040;2023-06-14T03:33:41;6.38;;;3.55;;
39882;SDS011;55824;52.220;21.040;2023-06-14T03:36:07;7.88;;;4.10;;
39882;SDS011;55824;52.220;21.040;2023-06-14T03:38:33;6.35;;;4.15;;
39882;SDS011;55824;52.220;21.040;2023-06-14T03:41:00;7.13;;;3.47;;
39882;SDS011;55824;52.220;21.040;2023-06-14T03:43:26;7.22;;;4.03;;
39882;SDS011;55824;52.220;21.040;2023-06-14T03:45:52;5.50;;;3.20;;
39882;SDS011;55824;52.220;21.040;2023-06-14T03:48:18;5.90;;;3.50;;
39882;SDS011;55824;52.220;21.040;2023-06-14T03:50:44;7.30;;;3.50;;
39882;SDS011;55824;52.220;21.040;2023-06-14T03:53:11;5.25;;;3.00;;
39882;SDS011;55824;52.220;21.040;2023-06-14T03:55:36;6.40;;;3.35;;
39882;SDS011;55824;52.220;21.040;2023-06-14T03:58:03;7.35;;;3.42;;
39882;SDS011;55824;52.220;21.040;2023-06-14T04:00:29;6.63;;;3.83;;
39882;SDS011;55824;52.220;21.040;2023-06-14T04:02:55;5.07;;;3.00;;
39882;SDS011;55824;52.220;21.040;2023-06-14T04:05:21;7.70;;;3.53;;
39882;SDS011;55824;52.220;21.040;2023-06-14T04:07:50;7.07;;;3.40;;
39882;SDS011;55824;52.220;21.040;2023-06-14T04:10:17;5.88;;;3.45;;
39882;SDS011;55824;52.220;21.040;2023-06-14T04:12:43;8.52;;;3.60;;
39882;SDS011;55824;52.220;21.040;2023-06-14T04:15:09;6.97;;;3.67;;
39882;SDS011;55824;52.220;21.040;2023-06-14T04:17:36;8.00;;;3.58;;
39882;SDS011;55824;52.220;21.040;2023-06-14T04:20:02;6.35;;;3.17;;
39882;SDS011;55824;52.220;21.040;2023-06-14T04:22:30;9.63;;;3.67;;
39882;SDS011;55824;52.220;21.040;2023-06-14T04:24:57;5.40;;;3.22;;
39882;SDS011;55824;52.220;21.040;2023-06-14T04:27:24;6.70;;;3.13;;
39882;SDS011;55824;52.220;21.040;2023-06-14T04:29:54;4.93;;;2.88;;
39882;SDS011;55824;52.220;21.040;2023-06-14T04:32:24;8.30;;;3.25;;
39882;SDS011;55824;52.220;21.040;2023-06-14T04:34:52;7.93;;;3.90;;
39882;SDS011;55824;52.220;21.040;2023-06-14T04:37:18;5.68;;;3.25;;
39882;SDS011;55824;52.220;21.040;2023-06-14T04:39:46;5.47;;;3.42;;
39882;SDS011;55824;52.220;21.040;2023-06-14T04:42:12;5.75;;;3.35;;
39882;SDS011;55824;52.220;21.040;2023-06-14T04:44:40;6.47;;;3.60;;
39882;SDS011;55824;52.220;21.040;2023-06-14T04:47:06;6.82;;;3.40;;
39882;SDS011;55824;52.220;21.040;2023-06-14T04:49:32;6.45;;;3.33;;
39882;SDS011;55824;52.220;21.040;2023-06-14T04:51:59;5.55;;;3.30;;
39882;SDS011;55824;52.220;21.040;2023-06-14T04:54:26;6.45;;;3.47;;
39882;SDS011;55824;52.220;21.040;2023-06-14T04:56:52;6.03;;;3.22;;
39882;SDS011;55824;52.220;21.040;2023-06-14T04:59:20;9.98;;;3.20;;
39882;SDS011;55824;52.220;21.040;2023-06-14T05:01:48;6.38;;;3.63;;
39882;SDS011;55824;52.220;21.040;2023-06-14T05:04:14;7.55;;;3.00;;
39882;SDS011;55824;52.220;21.040;2023-06-14T05:06:41;11.27;;;3.13;;
39882;SDS011;55824;52.220;21.040;2023-06-14T05:09:07;7.88;;;3.42;;
39882;SDS011;55824;52.220;21.040;2023-06-14T05:11:33;8.05;;;3.63;;
39882;SDS011;55824;52.220;21.040;2023-06-14T05:13:59;8.32;;;3.63;;
39882;SDS011;55824;52.220;21.040;2023-06-14T05:16:25;10.80;;;4.00;;
39882;SDS011;55824;52.220;21.040;2023-06-14T05:18:54;6.22;;;4.35;;
39882;SDS011;55824;52.220;21.040;2023-06-14T05:21:20;9.57;;;4.43;;
39882;SDS011;55824;52.220;21.040;2023-06-14T05:23:46;7.65;;;4.60;;
39882;SDS011;55824;52.220;21.040;2023-06-14T05:26:12;10.25;;;5.05;;
39882;SDS011;55824;52.220;21.040;2023-06-14T05:28:39;18.33;;;5.13;;
39882;SDS011;55824;52.220;21.040;2023-06-14T05:31:05;10.98;;;4.55;;
39882;SDS011;55824;52.220;21.040;2023-06-14T05:33:31;9.20;;;4.20;;
39882;SDS011;55824;52.220;21.040;2023-06-14T05:35:57;10.73;;;4.00;;
39882;SDS011;55824;52.220;21.040;2023-06-14T05:38:23;10.55;;;4.25;;
39882;SDS011;55824;52.220;21.040;2023-06-14T05:40:48;9.88;;;3.85;;
39882;SDS011;55824;52.220;21.040;2023-06-14T05:43:14;7.32;;;3.40;;
39882;SDS011;55824;52.220;21.040;2023-06-14T05:45:40;8.98;;;4.13;;
39882;SDS011;55824;52.220;21.040;2023-06-14T05:48:06;9.77;;;3.80;;
39882;SDS011;55824;52.220;21.040;2023-06-14T05:50:32;10.57;;;4.75;;
39882;SDS011;55824;52.220;21.040;2023-06-14T05:52:58;21.55;;;3.90;;
39882;SDS011;55824;52.220;21.040;2023-06-14T05:55:25;7.55;;;3.35;;
39882;SDS011;55824;52.220;21.040;2023-06-14T05:57:51;14.60;;;3.92;;
39882;SDS011;55824;52.220;21.040;2023-06-14T06:00:17;26.83;;;6.10;;
39882;SDS011;55824;52.220;21.040;2023-06-14T06:02:44;13.23;;;5.20;;
39882;SDS011;55824;52.220;21.040;2023-06-14T06:05:14;11.57;;;4.53;;
39882;SDS011;55824;52.220;21.040;2023-06-14T06:07:43;13.65;;;4.15;;
39882;SDS011;55824;52.220;21.040;2023-06-14T06:10:13;11.23;;;3.78;;
39882;SDS011;55824;52.220;21.040;2023-06-14T06:12:39;8.63;;;3.30;;
39882;SDS011;55824;52.220;21.040;2023-06-14T06:15:05;11.88;;;3.78;;
39882;SDS011;55824;52.220;21.040;2023-06-14T06:17:31;9.35;;;3.90;;
39882;SDS011;55824;52.220;21.040;2023-06-14T06:19:57;12.95;;;4.03;;
39882;SDS011;55824;52.220;21.040;2023-06-14T06:22:23;8.55;;;3.80;;
39882;SDS011;55824;52.220;21.040;2023-06-14T06:24:49;6.82;;;3.78;;
39882;SDS011;55824;52.220;21.040;2023-06-14T06:27:15;10.48;;;4.15;;
39882;SDS011;55824;52.220;21.040;2023-06-14T06:29:43;8.95;;;3.53;;
39882;SDS011;55824;52.220;21.040;2023-06-14T06:32:09;5.32;;;2.90;;
39882;SDS011;55824;52.220;21.040;2023-06-14T06:34:35;10.88;;;3.65;;
39882;SDS011;55824;52.220;21.040;2023-06-14T06:37:02;7.57;;;3.83;;
39882;SDS011;55824;52.220;21.040;2023-06-14T06:39:28;5.85;;;2.90;;
39882;SDS011;55824;52.220;21.040;2023-06-14T06:41:54;6.13;;;3.80;;
39882;SDS011;55824;52.220;21.040;2023-06-14T06:44:20;9.13;;;3.30;;
39882;SDS011;55824;52.220;21.040;2023-06-14T06:46:46;5.28;;;3.40;;
39882;SDS011;55824;52.220;21.040;2023-06-14T06:49:12;7.90;;;3.38;;
39882;SDS011;55824;52.220;21.040;2023-06-14T06:51:40;6.05;;;3.00;;
39882;SDS011;55824;52.220;21.040;2023-06-14T06:54:10;4.60;;;3.00;;
39882;SDS011;55824;52.220;21.040;2023-06-14T06:56:36;8.30;;;3.40;;
39882;SDS011;55824;52.220;21.040;2023-06-14T06:59:02;5.10;;;3.33;;
39882;SDS011;55824;52.220;21.040;2023-06-14T07:01:28;6.57;;;2.92;;
39882;SDS011;55824;52.220;21.040;2023-06-14T07:03:54;4.78;;;3.05;;
39882;SDS011;55824;52.220;21.040;2023-06-14T07:06:21;6.72;;;3.17;;
39882;SDS011;55824;52.220;21.040;2023-06-14T07:08:47;7.72;;;3.13;;
39882;SDS011;55824;52.220;21.040;2023-06-14T07:11:16;6.00;;;2.97;;
39882;SDS011;55824;52.220;21.040;2023-06-14T07:13:42;6.10;;;2.92;;
39882;SDS011;55824;52.220;21.040;2023-06-14T07:16:08;5.43;;;2.83;;
39882;SDS011;55824;52.220;21.040;2023-06-14T07:18:34;5.40;;;2.90;;
39882;SDS011;55824;52.220;21.040;2023-06-14T07:21:01;7.88;;;3.00;;
39882;SDS011;55824;52.220;21.040;2023-06-14T07:23:28;6.75;;;3.50;;
39882;SDS011;55824;52.220;21.040;2023-06-14T07:25:54;5.40;;;3.05;;
39882;SDS011;55824;52.220;21.040;2023-06-14T07:28:20;7.95;;;3.30;;
39882;SDS011;55824;52.220;21.040;2023-06-14T07:30:46;5.05;;;3.08;;
39882;SDS011;55824;52.220;21.040;2023-06-14T07:33:13;8.57;;;3.70;;
39882;SDS011;55824;52.220;21.040;2023-06-14T07:35:39;8.52;;;3.38;;
39882;SDS011;55824;52.220;21.040;2023-06-14T07:38:05;6.18;;;3.42;;
39882;SDS011;55824;52.220;21.040;2023-06-14T07:40:31;5.93;;;3.22;;
39882;SDS011;55824;52.220;21.040;2023-06-14T07:42:57;5.40;;;3.22;;
39882;SDS011;55824;52.220;21.040;2023-06-14T07:45:23;6.13;;;2.80;;
39882;SDS011;55824;52.220;21.040;2023-06-14T07:47:49;6.65;;;3.50;;
39882;SDS011;55824;52.220;21.040;2023-06-14T07:50:16;5.78;;;3.15;;
39882;SDS011;55824;52.220;21.040;2023-06-14T07:52:42;5.18;;;3.17;;
39882;SDS011;55824;52.220;21.040;2023-06-14T07:55:08;6.38;;;3.85;;
39882;SDS011;55824;52.220;21.040;2023-06-14T07:57:34;6.32;;;2.53;;
39882;SDS011;55824;52.220;21.040;2023-06-14T08:00:00;5.30;;;3.55;;
39882;SDS011;55824;52.220;21.040;2023-06-14T08:02:26;5.75;;;2.65;;
39882;SDS011;55824;52.220;21.040;2023-06-14T08:04:52;6.53;;;3.30;;
39882;SDS011;55824;52.220;21.040;2023-06-14T08:07:19;5.95;;;3.13;;
39882;SDS011;55824;52.220;21.040;2023-06-14T08:09:45;5.63;;;3.42;;
39882;SDS011;55824;52.220;21.040;2023-06-14T08:12:11;5.05;;;3.17;;
39882;SDS011;55824;52.220;21.040;2023-06-14T08:14:37;4.15;;;2.47;;
39882;SDS011;55824;52.220;21.040;2023-06-14T08:17:03;5.63;;;3.10;;
39882;SDS011;55824;52.220;21.040;2023-06-14T08:19:29;5.63;;;2.70;;
39882;SDS011;55824;52.220;21.040;2023-06-14T08:21:55;5.22;;;3.30;;
39882;SDS011;55824;52.220;21.040;2023-06-14T08:24:21;6.60;;;3.25;;
39882;SDS011;55824;52.220;21.040;2023-06-14T08:26:51;5.35;;;3.17;;
39882;SDS011;55824;52.220;21.040;2023-06-14T08:29:17;5.25;;;3.25;;
39882;SDS011;55824;52.220;21.040;2023-06-14T08:31:43;4.95;;;2.90;;
39882;SDS011;55824;52.220;21.040;2023-06-14T08:34:09;9.93;;;3.58;;
39882;SDS011;55824;52.220;21.040;2023-06-14T08:36:35;5.63;;;3.17;;
39882;SDS011;55824;52.220;21.040;2023-06-14T08:39:01;6.28;;;3.15;;
39882;SDS011;55824;52.220;21.040;2023-06-14T08:41:28;3.50;;;2.63;;
39882;SDS011;55824;52.220;21.040;2023-06-14T08:43:54;5.50;;;3.15;;
39882;SDS011;55824;52.220;21.040;2023-06-14T08:46:21;4.25;;;2.80;;
39882;SDS011;55824;52.220;21.040;2023-06-14T08:48:51;4.32;;;2.58;;
39882;SDS011;55824;52.220;21.040;2023-06-14T08:51:22;4.85;;;3.10;;
39882;SDS011;55824;52.220;21.040;2023-06-14T08:53:54;4.43;;;2.70;;
39882;SDS011;55824;52.220;21.040;2023-06-14T08:56:26;4.57;;;2.50;;
39882;SDS011;55824;52.220;21.040;2023-06-14T08:58:53;5.07;;;2.80;;
39882;SDS011;55824;52.220;21.040;2023-06-14T09:01:19;7.18;;;3.13;;
39882;SDS011;55824;52.220;21.040;2023-06-14T09:03:46;4.97;;;2.78;;
39882;SDS011;55824;52.220;21.040;2023-06-14T09:06:13;5.13;;;2.80;;
39882;SDS011;55824;52.220;21.040;2023-06-14T09:08:43;4.78;;;2.90;;
39882;SDS011;55824;52.220;21.040;2023-06-14T09:11:13;5.93;;;2.65;;
39882;SDS011;55824;52.220;21.040;2023-06-14T09:16:06;6.32;;;3.80;;
39882;SDS011;55824;52.220;21.040;2023-06-14T09:18:50;5.40;;;3.08;;
39882;SDS011;55824;52.220;21.040;2023-06-14T09:21:16;6.50;;;3.28;;
39882;SDS011;55824;52.220;21.040;2023-06-14T09:23:46;4.40;;;2.80;;
39882;SDS011;55824;52.220;21.040;2023-06-14T09:26:16;4.22;;;3.13;;
39882;SDS011;55824;52.220;21.040;2023-06-14T09:28:43;5.32;;;3.00;;
39882;SDS011;55824;52.220;21.040;2023-06-14T09:31:16;4.85;;;3.13;;
39882;SDS011;55824;52.220;21.040;2023-06-14T09:33:42;5.90;;;3.15;;
39882;SDS011;55824;52.220;21.040;2023-06-14T09:36:13;4.78;;;3.35;;
39882;SDS011;55824;52.220;21.040;2023-06-14T09:38:41;6.75;;;3.30;;
39882;SDS011;55824;52.220;21.040;2023-06-14T09:41:07;5.55;;;2.97;;
39882;SDS011;55824;52.220;21.040;2023-06-14T09:43:33;5.93;;;3.40;;
39882;SDS011;55824;52.220;21.040;2023-06-14T09:46:00;5.22;;;3.20;;
39882;SDS011;55824;52.220;21.040;2023-06-14T09:48:26;5.70;;;3.47;;
39882;SDS011;55824;52.220;21.040;2023-06-14T09:50:52;5.97;;;3.42;;
39882;SDS011;55824;52.220;21.040;2023-06-14T09:53:21;5.78;;;3.28;;
39882;SDS011;55824;52.220;21.040;2023-06-14T09:55:48;4.68;;;2.75;;
39882;SDS011;55824;52.220;21.040;2023-06-14T09:58:16;4.80;;;2.97;;
39882;SDS011;55824;52.220;21.040;2023-06-14T10:00:42;4.15;;;3.03;;
39882;SDS011;55824;52.220;21.040;2023-06-14T10:03:16;4.88;;;3.05;;
39882;SDS011;55824;52.220;21.040;2023-06-14T10:05:45;4.32;;;2.88;;
39882;SDS011;55824;52.220;21.040;2023-06-14T10:08:15;5.70;;;3.08;;
39882;SDS011;55824;52.220;21.040;2023-06-14T10:10:42;5.07;;;2.83;;
39882;SDS011;55824;52.220;21.040;2023-06-14T10:13:09;4.22;;;2.90;;
39882;SDS011;55824;52.220;21.040;2023-06-14T10:18:10;6.20;;;3.20;;
39882;SDS011;55824;52.220;21.040;2023-06-14T10:20:49;4.75;;;3.13;;
39882;SDS011;55824;52.220;21.040;2023-06-14T10:23:21;6.35;;;2.90;;
39882;SDS011;55824;52.220;21.040;2023-06-14T10:25:54;3.90;;;3.05;;
39882;SDS011;55824;52.220;21.040;2023-06-14T10:28:22;4.50;;;2.95;;
39882;SDS011;55824;52.220;21.040;2023-06-14T10:41:27;5.22;;;2.70;;
39882;SDS011;55824;52.220;21.040;2023-06-14T10:46:45;4.60;;;2.90;;
39882;SDS011;55824;52.220;21.040;2023-06-14T10:49:11;6.05;;;2.83;;
39882;SDS011;55824;52.220;21.040;2023-06-14T10:51:38;6.60;;;3.20;;
39882;SDS011;55824;52.220;21.040;2023-06-14T10:54:11;5.97;;;2.80;;
39882;SDS011;55824;52.220;21.040;2023-06-14T10:56:38;4.25;;;2.78;;
39882;SDS011;55824;52.220;21.040;2023-06-14T10:59:11;4.35;;;2.38;;
39882;SDS011;55824;52.220;21.040;2023-06-14T11:01:38;4.65;;;2.97;;
39882;SDS011;55824;52.220;21.040;2023-06-14T11:04:08;3.80;;;2.63;;
39882;SDS011;55824;52.220;21.040;2023-06-14T11:06:41;4.82;;;3.08;;
39882;SDS011;55824;52.220;21.040;2023-06-14T11:09:12;4.53;;;3.08;;
39882;SDS011;55824;52.220;21.040;2023-06-14T11:11:44;4.45;;;2.80;;
39882;SDS011;55824;52.220;21.040;2023-06-14T11:14:11;9.88;;;3.22;;
39882;SDS011;55824;52.220;21.040;2023-06-14T11:16:37;4.00;;;2.60;;
39882;SDS011;55824;52.220;21.040;2023-06-14T11:19:03;4.00;;;2.78;;
39882;SDS011;55824;52.220;21.040;2023-06-14T11:21:29;5.80;;;3.10;;
39882;SDS011;55824;52.220;21.040;2023-06-14T11:23:58;4.35;;;2.83;;
39882;SDS011;55824;52.220;21.040;2023-06-14T11:26:32;3.92;;;3.03;;
39882;SDS011;55824;52.220;21.040;2023-06-14T11:29:00;6.45;;;2.83;;
39882;SDS011;55824;52.220;21.040;2023-06-14T11:31:27;6.35;;;2.92;;
39882;SDS011;55824;52.220;21.040;2023-06-14T11:33:54;5.50;;;2.83;;
39882;SDS011;55824;52.220;21.040;2023-06-14T11:36:21;4.47;;;2.90;;
39882;SDS011;55824;52.220;21.040;2023-06-14T11:38:47;5.03;;;3.00;;
39882;SDS011;55824;52.220;21.040;2023-06-14T11:41:13;4.18;;;2.58;;
39882;SDS011;55824;52.220;21.040;2023-06-14T11:43:39;4.90;;;2.70;;
39882;SDS011;55824;52.220;21.040;2023-06-14T11:46:12;4.45;;;2.60;;
39882;SDS011;55824;52.220;21.040;2023-06-14T11:48:40;4.32;;;2.65;;
39882;SDS011;55824;52.220;21.040;2023-06-14T11:51:06;6.03;;;3.10;;
39882;SDS011;55824;52.220;21.040;2023-06-14T11:53:32;5.40;;;2.85;;
39882;SDS011;55824;52.220;21.040;2023-06-14T11:55:58;4.55;;;2.53;;
39882;SDS011;55824;52.220;21.040;2023-06-14T11:58:25;3.40;;;2.58;;
39882;SDS011;55824;52.220;21.040;2023-06-14T12:00:52;7.88;;;2.70;;
39882;SDS011;55824;52.220;21.040;2023-06-14T12:03:22;5.47;;;2.50;;
39882;SDS011;55824;52.220;21.040;2023-06-14T12:05:50;4.80;;;2.75;;
39882;SDS011;55824;52.220;21.040;2023-06-14T12:08:16;3.97;;;2.53;;
39882;SDS011;55824;52.220;21.040;2023-06-14T12:10:42;4.07;;;2.50;;
39882;SDS011;55824;52.220;21.040;2023-06-14T12:13:08;4.32;;;2.83;;
39882;SDS011;55824;52.220;21.040;2023-06-14T12:15:35;4.45;;;2.60;;
39882;SDS011;55824;52.220;21.040;2023-06-14T12:18:04;3.53;;;2.13;;
39882;SDS011;55824;52.220;21.040;2023-06-14T12:20:31;3.88;;;2.28;;
39882;SDS011;55824;52.220;21.040;2023-06-14T12:23:02;4.32;;;2.67;;
39882;SDS011;55824;52.220;21.040;2023-06-14T12:25:35;2.53;;;2.13;;
39882;SDS011;55824;52.220;21.040;2023-06-14T12:28:04;4.35;;;2.50;;
39882;SDS011;55824;52.220;21.040;2023-06-14T12:30:31;2.97;;;2.38;;
39882;SDS011;55824;52.220;21.040;2023-06-14T12:32:57;4.30;;;2.22;;
39882;SDS011;55824;52.220;21.040;2023-06-14T12:35:23;3.28;;;2.15;;
39882;SDS011;55824;52.220;21.040;2023-06-14T12:37:49;4.18;;;2.10;;
39882;SDS011;55824;52.220;21.040;2023-06-14T12:40:15;3.30;;;2.35;;
39882;SDS011;55824;52.220;21.040;2023-06-14T12:42:41;2.80;;;2.08;;
39882;SDS011;55824;52.220;21.040;2023-06-14T12:45:07;3.95;;;1.90;;
39882;SDS011;55824;52.220;21.040;2023-06-14T12:47:33;5.72;;;2.00;;
39882;SDS011;55824;52.220;21.040;2023-06-14T12:49:59;4.00;;;2.00;;
39882;SDS011;55824;52.220;21.040;2023-06-14T12:52:26;4.53;;;2.00;;
39882;SDS011;55824;52.220;21.040;2023-06-14T12:54:52;3.83;;;2.28;;
39882;SDS011;55824;52.220;21.040;2023-06-14T12:57:18;3.05;;;1.90;;
39882;SDS011;55824;52.220;21.040;2023-06-14T12:59:44;3.25;;;2.42;;
39882;SDS011;55824;52.220;21.040;2023-06-14T13:02:15;3.08;;;2.30;;
39882;SDS011;55824;52.220;21.040;2023-06-14T13:04:41;4.50;;;1.80;;
39882;SDS011;55824;52.220;21.040;2023-06-14T13:07:07;4.35;;;2.40;;
39882;SDS011;55824;52.220;21.040;2023-06-14T13:09:33;4.38;;;1.90;;
39882;SDS011;55824;52.220;21.040;2023-06-14T13:12:00;2.60;;;1.90;;
39882;SDS011;55824;52.220;21.040;2023-06-14T13:14:26;3.38;;;1.90;;
39882;SDS011;55824;52.220;21.040;2023-06-14T13:16:52;3.65;;;2.15;;
39882;SDS011;55824;52.220;21.040;2023-06-14T13:19:18;2.80;;;1.95;;
39882;SDS011;55824;52.220;21.040;2023-06-14T13:21:44;3.33;;;1.92;;
39882;SDS011;55824;52.220;21.040;2023-06-14T13:24:10;4.53;;;2.22;;
39882;SDS011;55824;52.220;21.040;2023-06-14T13:26:36;4.45;;;2.20;;
39882;SDS011;55824;52.220;21.040;2023-06-14T13:29:02;4.55;;;2.17;;
39882;SDS011;55824;52.220;21.040;2023-06-14T13:31:28;2.17;;;1.70;;
39882;SDS011;55824;52.220;21.040;2023-06-14T13:33:55;2.53;;;1.80;;
39882;SDS011;55824;52.220;21.040;2023-06-14T13:36:21;4.78;;;1.95;;
39882;SDS011;55824;52.220;21.040;2023-06-14T13:38:47;4.13;;;2.10;;
39882;SDS011;55824;52.220;21.040;2023-06-14T13:41:13;2.92;;;2.20;;
39882;SDS011;55824;52.220;21.040;2023-06-14T13:43:39;3.28;;;2.42;;
39882;SDS011;55824;52.220;21.040;2023-06-14T13:46:05;4.00;;;2.47;;
39882;SDS011;55824;52.220;21.040;2023-06-14T13:48:31;4.00;;;2.25;;
39882;SDS011;55824;52.220;21.040;2023-06-14T13:50:59;3.75;;;2.20;;
39882;SDS011;55824;52.220;21.040;2023-06-14T13:53:25;4.13;;;2.00;;
39882;SDS011;55824;52.220;21.040;2023-06-14T13:55:51;2.72;;;1.73;;
39882;SDS011;55824;52.220;21.040;2023-06-14T13:58:17;4.78;;;2.08;;
39882;SDS011;55824;52.220;21.040;2023-06-14T14:00:43;2.85;;;1.80;;
39882;SDS011;55824;52.220;21.040;2023-06-14T14:03:09;3.20;;;2.10;;
39882;SDS011;55824;52.220;21.040;2023-06-14T14:05:36;3.40;;;1.65;;
39882;SDS011;55824;52.220;21.040;2023-06-14T14:08:02;3.85;;;1.90;;
39882;SDS011;55824;52.220;21.040;2023-06-14T14:10:28;2.45;;;1.70;;
39882;SDS011;55824;52.220;21.040;2023-06-14T14:12:54;5.95;;;2.22;;
39882;SDS011;55824;52.220;21.040;2023-06-14T14:15:21;3.42;;;2.20;;
39882;SDS011;55824;52.220;21.040;2023-06-14T14:17:47;3.95;;;2.00;;
39882;SDS011;55824;52.220;21.040;2023-06-14T14:20:13;5.88;;;1.88;;
39882;SDS011;55824;52.220;21.040;2023-06-14T14:22:43;3.03;;;2.10;;
39882;SDS011;55824;52.220;21.040;2023-06-14T14:25:09;1.92;;;1.67;;
39882;SDS011;55824;52.220;21.040;2023-06-14T14:27:36;2.30;;;1.80;;
39882;SDS011;55824;52.220;21.040;2023-06-14T14:30:03;2.38;;;1.88;;
39882;SDS011;55824;52.220;21.040;2023-06-14T14:32:30;4.30;;;2.45;;
39882;SDS011;55824;52.220;21.040;2023-06-14T14:34:56;4.32;;;1.65;;
39882;SDS011;55824;52.220;21.040;2023-06-14T14:37:22;3.22;;;2.10;;
39882;SDS011;55824;52.220;21.040;2023-06-14T14:39:48;5.28;;;2.25;;
39882;SDS011;55824;52.220;21.040;2023-06-14T14:42:14;3.22;;;2.05;;
39882;SDS011;55824;52.220;21.040;2023-06-14T14:44:40;2.92;;;2.00;;
39882;SDS011;55824;52.220;21.040;2023-06-14T14:47:06;3.05;;;1.95;;
39882;SDS011;55824;52.220;21.040;2023-06-14T14:49:32;3.28;;;1.88;;
39882;SDS011;55824;52.220;21.040;2023-06-14T14:51:58;3.60;;;1.70;;